Buffalo Gap, South Dakota
Current Conditions -  °F | °C
As of 11:53 PM on Sunday 21 Dec 2014 (Local Time) from KCUT Reporting Station
Scattered Clouds Scattered Clouds  
Wind Chill: 27°   Ceiling: Unl
Heat Index: 33°   Visibility: 10mi
Dew Point: 24°   Wind: 7mph
Humidity: 70%   Direction: NA
Pressure: 29.49"   Gusts: NA
Location:  43.49°N, 103.31°W
Report Text: KCUT 220653Z AUTO VRB06KT 10SM SCT030 01/M04 A2949 RMK AO2 SLP988 T00061044 400611033
Loading
Personal Weather Stations






























Interactive Weather Map New forecast layout! Learn more

10-Day Weather Forecast

Advertisements
Track Severe Weather on mobile